createdAt,value
2023-04-10T00:00:14.376Z,6.44
2023-04-10T00:01:15.932Z,6.40
2023-04-10T00:02:17.700Z,6.39
2023-04-10T00:03:19.515Z,6.38
2023-04-10T00:04:21.262Z,6.38
2023-04-10T00:05:22.944Z,6.36
2023-04-10T00:06:24.449Z,6.34
2023-04-10T00:07:26.095Z,6.31
2023-04-10T00:08:27.670Z,6.34
2023-04-10T00:09:29.218Z,6.38
2023-04-10T00:10:30.796Z,6.42
2023-04-10T00:11:32.341Z,6.43
2023-04-10T00:12:36.146Z,6.43
2023-04-10T00:13:37.641Z,6.49
2023-04-10T00:14:39.235Z,6.57
2023-04-10T00:15:40.753Z,6.63
2023-04-10T00:16:42.334Z,6.65
2023-04-10T00:17:43.958Z,6.66
2023-04-10T00:18:45.538Z,6.62
2023-04-10T00:19:47.120Z,6.64
2023-04-10T00:20:48.651Z,6.67
2023-04-10T00:21:50.162Z,6.73
2023-04-10T00:22:51.725Z,6.78
2023-04-10T00:23:53.465Z,6.83
2023-04-10T00:24:55.092Z,6.88
2023-04-10T00:25:56.602Z,6.89
2023-04-10T00:26:58.150Z,6.88
2023-04-10T00:27:59.675Z,6.87
2023-04-10T00:29:02.113Z,6.85
2023-04-10T00:30:03.808Z,6.77
2023-04-10T00:31:05.630Z,6.76
2023-04-10T00:32:07.296Z,6.77
2023-04-10T00:33:08.915Z,6.79
2023-04-10T00:34:10.489Z,6.78
2023-04-10T00:35:12.119Z,6.77
2023-04-10T00:36:13.811Z,6.71
2023-04-10T00:37:15.495Z,6.74
2023-04-10T00:38:17.049Z,6.75
2023-04-10T00:39:19.208Z,6.74
2023-04-10T00:40:20.730Z,6.73
2023-04-10T00:41:22.365Z,6.70
2023-04-10T00:42:23.983Z,6.69
2023-04-10T00:43:25.530Z,6.69
2023-04-10T00:44:27.037Z,6.69
2023-04-10T00:45:28.611Z,6.71
2023-04-10T00:46:31.298Z,6.69
2023-04-10T00:47:35.009Z,6.73
2023-04-10T00:48:37.163Z,6.71
2023-04-10T00:49:38.727Z,6.69
2023-04-10T00:50:40.353Z,6.72
2023-04-10T00:51:41.943Z,6.74
2023-04-10T00:52:43.760Z,6.73
2023-04-10T00:53:46.043Z,6.76
2023-04-10T00:54:47.751Z,6.73
2023-04-10T00:55:50.365Z,6.74
2023-04-10T00:56:52.326Z,6.72
2023-04-10T00:57:56.311Z,6.65
2023-04-10T00:58:58.016Z,6.63
2023-04-10T01:00:00.426Z,6.54
2023-04-10T01:01:01.957Z,6.51
2023-04-10T01:02:04.306Z,6.53
2023-04-10T01:03:06.131Z,6.47
2023-04-10T01:04:09.588Z,6.51
2023-04-10T01:05:13.109Z,6.53
2023-04-10T01:06:30.583Z,6.49
2023-04-10T01:07:44.309Z,6.37
2023-04-10T01:08:49.921Z,6.30
2023-04-10T01:10:08.471Z,6.22
2023-04-10T01:11:21.896Z,6.13
2023-04-10T01:12:47.841Z,6.07
2023-04-10T01:14:07.148Z,5.98
2023-04-10T01:15:15.531Z,5.95
2023-04-10T01:16:27.019Z,5.96
2023-04-10T01:17:35.306Z,5.91
2023-04-10T01:18:53.334Z,5.93
2023-04-10T01:20:04.364Z,5.94
2023-04-10T01:21:10.936Z,5.97
2023-04-10T01:22:14.019Z,5.98
2023-04-10T01:23:52.940Z,6.01
2023-04-10T01:25:32.179Z,6.03
2023-04-10T01:26:56.153Z,6.01
2023-04-10T01:28:36.600Z,6.08
2023-04-10T01:29:44.724Z,6.13
2023-04-10T01:30:48.829Z,6.15
2023-04-10T01:32:14.826Z,6.18
2023-04-10T01:33:22.467Z,6.22
2023-04-10T01:34:30.034Z,6.26
2023-04-10T01:35:33.688Z,6.28
2023-04-10T01:36:40.745Z,6.21
2023-04-10T01:37:43.127Z,6.24
2023-04-10T01:38:46.442Z,6.31
2023-04-10T01:39:52.398Z,6.39
2023-04-10T01:40:55.185Z,6.43
2023-04-10T01:42:06.795Z,6.47
2023-04-10T01:43:12.444Z,6.50
2023-04-10T01:44:25.507Z,6.54
2023-04-10T01:45:28.486Z,6.55
2023-04-10T01:46:31.743Z,6.39
2023-04-10T01:47:33.598Z,6.31
2023-04-10T01:48:35.742Z,6.25
2023-04-10T01:49:40.289Z,6.25
2023-04-10T01:50:42.229Z,6.22
2023-04-10T01:51:44.911Z,6.16
2023-04-10T01:52:47.633Z,6.16
2023-04-10T01:53:55.906Z,6.19
2023-04-10T01:55:02.661Z,6.14
2023-04-10T01:56:15.993Z,6.19
2023-04-10T01:57:21.185Z,6.28
2023-04-10T01:58:28.566Z,6.35
2023-04-10T01:59:32.885Z,6.43
2023-04-10T02:00:41.926Z,6.52
2023-04-10T02:01:44.565Z,6.57
2023-04-10T02:02:47.139Z,6.61
2023-04-10T02:03:48.898Z,6.65
2023-04-10T02:04:50.580Z,6.69
2023-04-10T02:06:05.441Z,6.74
2023-04-10T02:07:12.017Z,6.69
2023-04-10T02:08:26.412Z,6.69
2023-04-10T02:09:55.651Z,6.70
2023-04-10T02:11:36.703Z,6.68
2023-04-10T02:13:00.379Z,6.66
2023-04-10T02:14:05.638Z,6.66
2023-04-10T02:15:09.310Z,6.61
2023-04-10T02:16:15.919Z,6.64
2023-04-10T02:17:23.184Z,6.64
2023-04-10T02:18:27.036Z,6.63
2023-04-10T02:19:30.910Z,6.61
2023-04-10T02:20:33.055Z,6.61
2023-04-10T02:21:35.379Z,6.62
2023-04-10T02:22:37.117Z,6.65
2023-04-10T02:23:39.080Z,6.67
2023-04-10T02:24:40.662Z,6.70
2023-04-10T02:25:42.263Z,6.73
2023-04-10T02:26:53.647Z,6.73
2023-04-10T02:27:55.196Z,6.76
2023-04-10T02:28:56.709Z,6.76
2023-04-10T02:29:58.369Z,6.77
2023-04-10T02:31:00.981Z,6.80
2023-04-10T02:32:03.484Z,6.76
2023-04-10T02:33:05.612Z,6.63
2023-04-10T02:34:07.369Z,6.47
2023-04-10T02:35:09.076Z,6.37
2023-04-10T02:36:12.244Z,6.28
2023-04-10T02:37:13.830Z,6.21
2023-04-10T02:38:17.267Z,6.19
2023-04-10T02:39:19.024Z,6.15
2023-04-10T02:40:24.514Z,6.09
2023-04-10T02:41:44.705Z,6.07
2023-04-10T02:42:47.810Z,6.01
2023-04-10T02:43:49.344Z,6.04
2023-04-10T02:44:53.187Z,6.03
2023-04-10T02:45:54.952Z,6.03
2023-04-10T02:47:02.008Z,6.01
2023-04-10T02:48:06.037Z,5.97
2023-04-10T02:49:07.611Z,5.92
2023-04-10T02:50:09.828Z,5.98
2023-04-10T02:51:14.071Z,6.11
2023-04-10T02:52:15.928Z,6.16
2023-04-10T02:53:17.483Z,6.25
2023-04-10T02:54:19.011Z,6.35
2023-04-10T02:55:20.579Z,6.37
2023-04-10T02:56:22.119Z,6.43
2023-04-10T02:57:23.619Z,6.51
2023-04-10T02:58:25.216Z,6.54
2023-04-10T02:59:29.619Z,6.55
2023-04-10T03:00:31.945Z,6.58
2023-04-10T03:01:39.775Z,6.61
2023-04-10T03:02:41.735Z,6.67
2023-04-10T03:03:50.270Z,6.71
2023-04-10T03:05:01.853Z,6.75
2023-04-10T03:06:04.398Z,6.77
2023-04-10T03:07:09.022Z,6.79
2023-04-10T03:08:14.120Z,6.83
2023-04-10T03:09:15.660Z,6.86
2023-04-10T03:10:17.199Z,6.88
2023-04-10T03:11:18.864Z,6.88
2023-04-10T03:12:20.400Z,6.93
2023-04-10T03:13:21.923Z,6.92
2023-04-10T03:14:23.466Z,6.91
2023-04-10T03:15:25.005Z,6.95
2023-04-10T03:16:26.647Z,6.96
2023-04-10T03:17:28.392Z,6.95
2023-04-10T03:18:30.054Z,6.96
2023-04-10T03:19:31.601Z,6.97
2023-04-10T03:20:33.601Z,7.00
2023-04-10T03:21:35.208Z,7.00
2023-04-10T03:22:38.650Z,6.99
2023-04-10T03:23:41.421Z,7.02
2023-04-10T03:24:42.928Z,6.99
2023-04-10T03:25:44.492Z,6.96
2023-04-10T03:26:46.051Z,6.96
2023-04-10T03:27:47.576Z,6.97
2023-04-10T03:28:49.394Z,6.97
2023-04-10T03:29:50.916Z,6.97
2023-04-10T03:30:52.748Z,6.98
2023-04-10T03:31:54.365Z,6.96
2023-04-10T03:32:55.952Z,6.96
2023-04-10T03:33:57.751Z,6.95
2023-04-10T03:34:59.785Z,6.93
2023-04-10T03:36:01.368Z,6.94
2023-04-10T03:37:02.960Z,6.94
2023-04-10T03:38:04.533Z,6.95
2023-04-10T03:39:06.093Z,6.96
2023-04-10T03:40:10.580Z,6.97
2023-04-10T03:41:12.144Z,6.97
2023-04-10T03:42:13.785Z,6.98
2023-04-10T03:43:15.404Z,6.96
2023-04-10T03:44:17.565Z,6.88
2023-04-10T03:45:19.101Z,6.80
2023-04-10T03:46:20.628Z,6.74
2023-04-10T03:47:22.267Z,6.69
2023-04-10T03:48:25.941Z,6.71
2023-04-10T03:49:27.481Z,6.74
2023-04-10T03:50:37.001Z,6.77
2023-04-10T03:51:39.494Z,6.75
2023-04-10T03:52:41.610Z,6.62
2023-04-10T03:53:48.118Z,6.59
2023-04-10T03:54:50.995Z,6.51
2023-04-10T03:55:59.589Z,6.48
2023-04-10T03:57:01.156Z,6.51
2023-04-10T03:58:03.257Z,6.57
2023-04-10T03:59:05.552Z,6.61
2023-04-10T04:00:14.434Z,6.62
2023-04-10T04:01:22.254Z,6.59
2023-04-10T04:02:33.508Z,6.47
2023-04-10T04:03:36.041Z,6.48
2023-04-10T04:05:00.862Z,6.45
2023-04-10T04:06:21.439Z,6.37
2023-04-10T04:07:41.392Z,6.30
2023-04-10T04:09:18.067Z,6.27
2023-04-10T04:10:32.252Z,6.23
2023-04-10T04:11:52.168Z,6.21
2023-04-10T04:13:12.066Z,6.16
2023-04-10T04:14:39.795Z,6.17
2023-04-10T04:15:59.958Z,6.04
2023-04-10T04:17:27.846Z,5.99
2023-04-10T04:18:38.497Z,6.02
2023-04-10T04:20:03.525Z,6.02
2023-04-10T04:21:30.956Z,5.88
2023-04-10T04:22:58.745Z,5.81
2023-04-10T04:24:15.077Z,5.85
2023-04-10T04:25:45.531Z,5.80
2023-04-10T04:27:04.280Z,5.88
2023-04-10T04:28:23.303Z,6.01
2023-04-10T04:29:43.164Z,6.12
2023-04-10T04:31:19.941Z,6.21
2023-04-10T04:32:53.852Z,6.29
2023-04-10T04:34:13.961Z,6.35
2023-04-10T04:35:38.785Z,6.36
2023-04-10T04:37:15.680Z,6.39
2023-04-10T04:38:36.841Z,6.40
2023-04-10T04:40:07.828Z,6.42
2023-04-10T04:41:22.757Z,6.41
2023-04-10T04:42:39.504Z,6.23
2023-04-10T04:44:06.989Z,6.01
2023-04-10T04:45:23.443Z,5.90
2023-04-10T04:46:44.392Z,5.83
2023-04-10T04:48:05.017Z,5.80
2023-04-10T04:49:33.068Z,5.66
2023-04-10T04:50:53.258Z,5.61
2023-04-10T04:52:13.118Z,5.60
2023-04-10T04:53:18.067Z,5.58
2023-04-10T04:54:42.808Z,5.55
2023-04-10T04:56:04.854Z,5.55
2023-04-10T04:57:26.535Z,5.55
2023-04-10T04:58:51.273Z,5.54
2023-04-10T05:00:28.000Z,5.54
2023-04-10T05:01:42.080Z,5.49
2023-04-10T05:03:08.931Z,5.57
2023-04-10T05:04:10.750Z,5.65
2023-04-10T05:05:31.097Z,5.72
2023-04-10T05:06:47.824Z,5.82
2023-04-10T05:07:57.640Z,5.94
2023-04-10T05:09:17.775Z,6.07
2023-04-10T05:10:30.789Z,6.18
2023-04-10T05:11:48.761Z,6.28
2023-04-10T05:13:13.202Z,6.34
2023-04-10T05:14:28.646Z,6.40
2023-04-10T05:15:40.386Z,6.46
2023-04-10T05:16:41.939Z,6.49
2023-04-10T05:17:46.270Z,6.44
2023-04-10T05:19:10.842Z,6.29
2023-04-10T05:20:35.628Z,6.13
2023-04-10T05:21:44.947Z,6.18
2023-04-10T05:23:18.748Z,6.12
2023-04-10T05:24:20.277Z,6.12
2023-04-10T05:25:44.431Z,6.10
2023-04-10T05:27:06.259Z,6.08
2023-04-10T05:28:33.874Z,6.09
2023-04-10T05:29:55.646Z,6.11
2023-04-10T05:31:17.139Z,6.16
2023-04-10T05:32:44.801Z,6.09
2023-04-10T05:34:04.893Z,6.17
2023-04-10T05:35:18.358Z,6.19
2023-04-10T05:36:33.134Z,6.11
2023-04-10T05:37:50.339Z,6.11
2023-04-10T05:39:04.663Z,6.14
2023-04-10T05:40:12.552Z,6.13
2023-04-10T05:41:46.326Z,6.23
2023-04-10T05:42:50.769Z,6.30
2023-04-10T05:43:59.888Z,6.38
2023-04-10T05:45:39.936Z,6.52
2023-04-10T05:47:10.924Z,6.64
2023-04-10T05:48:15.259Z,6.71
2023-04-10T05:49:52.227Z,6.80
2023-04-10T05:51:12.404Z,6.85
2023-04-10T05:52:32.014Z,6.89
2023-04-10T05:53:41.674Z,6.94
2023-04-10T05:55:03.587Z,6.99
2023-04-10T05:56:08.165Z,7.03
2023-04-10T05:57:30.039Z,7.11
2023-04-10T05:58:52.114Z,7.12
2023-04-10T06:00:19.851Z,7.21
2023-04-10T06:01:59.566Z,7.25
2023-04-10T06:03:01.270Z,7.28
2023-04-10T06:04:03.651Z,7.31
2023-04-10T06:05:05.610Z,7.28
2023-04-10T06:06:08.655Z,7.25
2023-04-10T06:07:10.167Z,7.15
2023-04-10T06:08:11.886Z,7.08
2023-04-10T06:09:13.510Z,7.03
2023-04-10T06:10:15.041Z,6.97
2023-04-10T06:11:16.852Z,7.06
2023-04-10T06:12:22.503Z,7.13
2023-04-10T06:13:24.132Z,7.16
2023-04-10T06:14:29.130Z,7.20
2023-04-10T06:15:32.145Z,7.21
2023-04-10T06:16:33.714Z,7.24
2023-04-10T06:17:35.376Z,7.21
2023-04-10T06:18:38.116Z,7.23
2023-04-10T06:19:39.651Z,7.24
2023-04-10T06:20:41.169Z,7.27
2023-04-10T06:21:42.717Z,7.25
2023-04-10T06:22:44.257Z,7.21
2023-04-10T06:23:45.777Z,7.18
2023-04-10T06:24:47.281Z,7.15
2023-04-10T06:25:48.845Z,7.07
2023-04-10T06:26:50.361Z,7.11
2023-04-10T06:27:52.159Z,7.06
2023-04-10T06:28:54.215Z,7.07
2023-04-10T06:29:56.405Z,7.02
2023-04-10T06:30:58.386Z,7.07
2023-04-10T06:32:05.754Z,7.07
2023-04-10T06:33:11.187Z,7.05
2023-04-10T06:34:16.271Z,7.05
2023-04-10T06:35:27.467Z,7.05
2023-04-10T06:36:29.017Z,7.01
2023-04-10T06:37:39.535Z,6.98
2023-04-10T06:38:41.241Z,7.01
2023-04-10T06:39:42.778Z,7.11
2023-04-10T06:40:44.355Z,7.14
2023-04-10T06:41:45.897Z,7.14
2023-04-10T06:43:09.574Z,7.21
2023-04-10T06:44:15.113Z,7.22
2023-04-10T06:45:16.653Z,7.22
2023-04-10T06:46:18.196Z,7.24
2023-04-10T06:47:19.913Z,7.22
2023-04-10T06:48:21.506Z,7.26
2023-04-10T06:49:23.085Z,7.31
2023-04-10T06:50:24.648Z,7.33
2023-04-10T06:51:26.195Z,7.36
2023-04-10T06:52:27.733Z,7.42
2023-04-10T06:53:29.684Z,7.49
2023-04-10T06:54:31.217Z,7.52
2023-04-10T06:55:32.773Z,7.51
2023-04-10T06:56:34.336Z,7.52
2023-04-10T06:57:35.911Z,7.55
2023-04-10T06:58:37.446Z,7.53
2023-04-10T06:59:38.983Z,7.63
2023-04-10T07:00:40.961Z,7.50
2023-04-10T07:01:42.511Z,7.50
2023-04-10T07:02:44.128Z,7.56
2023-04-10T07:03:45.870Z,7.58
2023-04-10T07:04:47.506Z,7.65
2023-04-10T07:05:49.069Z,7.68
2023-04-10T07:06:50.628Z,7.69
2023-04-10T07:07:52.166Z,7.67
2023-04-10T07:08:53.896Z,7.70
2023-04-10T07:09:55.557Z,7.64
2023-04-10T07:10:58.627Z,7.67
2023-04-10T07:12:00.474Z,7.72
2023-04-10T07:13:02.149Z,7.71
2023-04-10T07:14:03.779Z,7.78
2023-04-10T07:15:06.085Z,7.78
2023-04-10T07:16:08.319Z,7.84
2023-04-10T07:17:09.886Z,7.79
2023-04-10T07:18:11.390Z,7.76
2023-04-10T07:19:12.916Z,7.74
2023-04-10T07:20:14.554Z,7.76
2023-04-10T07:21:16.111Z,7.82
2023-04-10T07:22:17.712Z,7.81
2023-04-10T07:23:19.244Z,7.87
2023-04-10T07:24:20.786Z,7.91
2023-04-10T07:25:22.371Z,7.95
2023-04-10T07:26:23.957Z,8.00
2023-04-10T07:27:25.575Z,8.06
2023-04-10T07:28:27.117Z,8.05
2023-04-10T07:29:28.639Z,8.08
2023-04-10T07:30:30.215Z,8.08
2023-04-10T07:31:31.874Z,8.14
2023-04-10T07:32:33.602Z,8.18
2023-04-10T07:33:35.355Z,8.22
2023-04-10T07:34:36.897Z,8.14
2023-04-10T07:35:38.465Z,8.13
2023-04-10T07:36:40.090Z,8.17
2023-04-10T07:37:41.647Z,8.09
2023-04-10T07:38:43.179Z,8.08
2023-04-10T07:39:45.068Z,8.10
2023-04-10T07:40:46.670Z,8.15
2023-04-10T07:41:48.181Z,8.07
2023-04-10T07:42:51.501Z,8.13
2023-04-10T07:43:54.885Z,8.15
2023-04-10T07:44:57.149Z,8.21
2023-04-10T07:45:58.662Z,8.20
2023-04-10T07:47:00.296Z,8.21
2023-04-10T07:48:01.940Z,8.25
2023-04-10T07:49:03.501Z,8.27
2023-04-10T07:50:05.827Z,8.26
2023-04-10T07:51:07.825Z,8.23
2023-04-10T07:52:09.340Z,8.24
2023-04-10T07:53:10.862Z,8.21
2023-04-10T07:54:12.375Z,8.25
2023-04-10T07:55:13.912Z,8.28
2023-04-10T07:56:19.491Z,8.31
2023-04-10T07:57:21.040Z,8.30
2023-04-10T07:58:22.572Z,8.29
2023-04-10T07:59:24.103Z,8.31
2023-04-10T08:00:25.614Z,8.32
2023-04-10T08:01:28.057Z,8.36
2023-04-10T08:02:29.683Z,8.36
2023-04-10T08:03:41.144Z,8.39
2023-04-10T08:04:42.858Z,8.36
2023-04-10T08:05:44.603Z,8.36
2023-04-10T08:06:46.139Z,8.38
2023-04-10T08:07:47.679Z,8.38
2023-04-10T08:08:49.219Z,8.42
2023-04-10T08:09:50.746Z,8.39
2023-04-10T08:10:52.299Z,8.42
2023-04-10T08:11:53.792Z,8.48
2023-04-10T08:12:55.703Z,8.54
2023-04-10T08:13:59.204Z,8.60
2023-04-10T08:15:00.703Z,8.62
2023-04-10T08:16:02.232Z,8.62
2023-04-10T08:17:03.907Z,8.65
2023-04-10T08:18:05.576Z,8.63
2023-04-10T08:19:07.182Z,8.69
2023-04-10T08:20:09.735Z,8.70
2023-04-10T08:21:11.236Z,8.73
2023-04-10T08:22:12.736Z,8.76
2023-04-10T08:23:20.302Z,8.79
2023-04-10T08:24:22.512Z,8.73
2023-04-10T08:25:24.130Z,8.73
2023-04-10T08:26:27.060Z,8.75
2023-04-10T08:27:28.597Z,8.81
2023-04-10T08:28:30.128Z,8.86
2023-04-10T08:29:31.665Z,8.89
2023-04-10T08:30:33.279Z,8.88
2023-04-10T08:31:34.838Z,8.84
2023-04-10T08:32:36.685Z,8.90
2023-04-10T08:33:38.288Z,8.96
2023-04-10T08:34:39.869Z,8.94
2023-04-10T08:35:41.442Z,8.86
2023-04-10T08:36:42.996Z,8.77
2023-04-10T08:37:49.716Z,8.83
2023-04-10T08:38:51.613Z,8.92
2023-04-10T08:39:53.244Z,8.97
2023-04-10T08:40:55.642Z,8.96
2023-04-10T08:41:57.208Z,9.02
2023-04-10T08:42:58.759Z,9.08
2023-04-10T08:44:00.310Z,9.12
2023-04-10T08:45:02.254Z,9.18
2023-04-10T08:46:04.019Z,9.19
2023-04-10T08:47:06.833Z,9.19
2023-04-10T08:48:10.861Z,9.18
2023-04-10T08:49:29.305Z,9.16
2023-04-10T08:50:33.687Z,9.14
2023-04-10T08:51:55.811Z,9.17
2023-04-10T08:52:59.998Z,9.16
2023-04-10T08:54:11.165Z,9.11
2023-04-10T08:55:13.459Z,9.10
2023-04-10T08:56:17.451Z,8.96
2023-04-10T08:57:20.410Z,9.02
2023-04-10T08:58:23.830Z,9.05
2023-04-10T08:59:25.587Z,9.11
2023-04-10T09:00:28.614Z,9.14
2023-04-10T09:01:30.948Z,9.17
2023-04-10T09:02:32.668Z,9.20
2023-04-10T09:03:34.537Z,9.25
2023-04-10T09:04:36.660Z,9.24
2023-04-10T09:05:38.386Z,9.20
2023-04-10T09:06:40.160Z,9.16
2023-04-10T09:07:41.691Z,9.16
2023-04-10T09:08:43.210Z,9.19
2023-04-10T09:09:45.075Z,9.23
2023-04-10T09:10:46.630Z,9.24
2023-04-10T09:11:54.101Z,9.23
2023-04-10T09:12:55.709Z,9.22
2023-04-10T09:13:57.366Z,9.16
2023-04-10T09:14:58.975Z,9.17
2023-04-10T09:16:00.822Z,9.19
2023-04-10T09:17:22.109Z,9.23
2023-04-10T09:18:41.124Z,9.21
2023-04-10T09:19:44.086Z,9.21
2023-04-10T09:20:45.651Z,9.25
2023-04-10T09:21:50.393Z,9.32
2023-04-10T09:22:52.255Z,9.39
2023-04-10T09:24:00.897Z,9.45
2023-04-10T09:25:04.023Z,9.41
2023-04-10T09:26:22.524Z,9.46
2023-04-10T09:27:35.728Z,9.39
2023-04-10T09:28:56.178Z,9.37
2023-04-10T09:29:58.453Z,9.32
2023-04-10T09:31:00.123Z,9.36
2023-04-10T09:32:01.715Z,9.36
2023-04-10T09:33:04.230Z,9.39
2023-04-10T09:34:18.356Z,9.42
2023-04-10T09:35:20.042Z,9.42
2023-04-10T09:36:21.621Z,9.46
2023-04-10T09:37:30.791Z,9.51
2023-04-10T09:38:32.419Z,9.58
2023-04-10T09:39:36.068Z,9.62
2023-04-10T09:40:37.728Z,9.59
2023-04-10T09:41:53.606Z,9.58
2023-04-10T09:42:56.685Z,9.51
2023-04-10T09:44:09.140Z,9.49
2023-04-10T09:45:10.634Z,9.47
2023-04-10T09:46:12.221Z,9.50
2023-04-10T09:47:13.732Z,9.53
2023-04-10T09:48:15.289Z,9.53
2023-04-10T09:49:16.852Z,9.54
2023-04-10T09:50:18.449Z,9.59
2023-04-10T09:51:33.144Z,9.60
2023-04-10T09:52:35.108Z,9.64
2023-04-10T09:53:49.089Z,9.67
2023-04-10T09:54:50.632Z,9.69
2023-04-10T09:55:52.169Z,9.68
2023-04-10T09:56:54.463Z,9.73
2023-04-10T09:57:57.658Z,9.74
2023-04-10T09:59:00.787Z,9.76
2023-04-10T10:00:05.085Z,9.77
2023-04-10T10:01:12.552Z,9.76
2023-04-10T10:02:16.582Z,9.81
2023-04-10T10:03:20.041Z,9.86
2023-04-10T10:04:21.951Z,9.90
2023-04-10T10:05:24.159Z,9.91
2023-04-10T10:06:26.179Z,9.88
2023-04-10T10:07:29.592Z,9.85
2023-04-10T10:08:33.462Z,9.82
2023-04-10T10:09:36.780Z,9.84
2023-04-10T10:11:00.301Z,9.74
2023-04-10T10:12:03.476Z,9.67
2023-04-10T10:13:06.514Z,9.61
2023-04-10T10:14:15.064Z,9.61
2023-04-10T10:15:44.535Z,9.66
2023-04-10T10:16:49.889Z,9.63
2023-04-10T10:17:59.971Z,9.62
2023-04-10T10:19:09.484Z,9.58
2023-04-10T10:20:13.235Z,9.52
2023-04-10T10:21:16.201Z,9.51
2023-04-10T10:22:19.226Z,9.55
2023-04-10T10:23:22.192Z,9.57
2023-04-10T10:24:24.852Z,9.54
2023-04-10T10:25:26.632Z,9.58
2023-04-10T10:26:30.286Z,9.56
2023-04-10T10:27:34.324Z,9.57
2023-04-10T10:28:36.193Z,9.57
2023-04-10T10:29:39.205Z,9.61
2023-04-10T10:30:41.004Z,9.65
2023-04-10T10:31:43.293Z,9.64
2023-04-10T10:32:46.199Z,9.61
2023-04-10T10:33:48.154Z,9.70
2023-04-10T10:34:52.542Z,9.75
2023-04-10T10:35:54.599Z,9.77
2023-04-10T10:36:58.115Z,9.81
2023-04-10T10:38:01.207Z,9.87
2023-04-10T10:39:05.424Z,9.99
2023-04-10T10:40:17.655Z,10.09
2023-04-10T10:41:28.629Z,10.24
2023-04-10T10:43:00.624Z,10.34
2023-04-10T10:44:13.284Z,10.48
2023-04-10T10:45:23.708Z,10.54
2023-04-10T10:46:41.680Z,10.57
2023-04-10T10:47:50.985Z,10.63
2023-04-10T10:48:57.152Z,10.70
2023-04-10T10:50:00.552Z,10.84
2023-04-10T10:51:02.278Z,10.89
2023-04-10T10:52:03.965Z,10.83
2023-04-10T10:53:05.500Z,10.91
2023-04-10T10:54:27.547Z,10.94
2023-04-10T10:55:29.680Z,10.98
2023-04-10T10:56:33.962Z,11.04
2023-04-10T10:57:48.578Z,11.07
2023-04-10T10:58:53.039Z,11.07
2023-04-10T10:59:55.042Z,11.02
2023-04-10T11:00:59.174Z,11.01
2023-04-10T11:02:14.378Z,11.04
2023-04-10T11:03:16.075Z,11.10
2023-04-10T11:04:46.801Z,11.10
2023-04-10T11:05:49.367Z,11.00
2023-04-10T11:06:51.965Z,10.98
2023-04-10T11:07:59.410Z,11.01
2023-04-10T11:09:00.991Z,11.01
2023-04-10T11:10:02.624Z,10.92
2023-04-10T11:11:11.580Z,10.98
2023-04-10T11:12:13.340Z,10.94
2023-04-10T11:13:16.790Z,10.97
2023-04-10T11:14:19.152Z,10.99
2023-04-10T11:15:23.914Z,11.05
2023-04-10T11:16:31.636Z,11.07
2023-04-10T11:17:50.018Z,11.00
2023-04-10T11:19:02.676Z,10.92
2023-04-10T11:20:11.955Z,10.89
2023-04-10T11:21:14.387Z,10.88
2023-04-10T11:22:15.927Z,10.94
2023-04-10T11:23:17.485Z,10.99
2023-04-10T11:24:19.025Z,10.94
2023-04-10T11:25:20.659Z,10.90
2023-04-10T11:26:33.792Z,10.86
2023-04-10T11:27:38.355Z,10.78
2023-04-10T11:28:39.953Z,10.77
2023-04-10T11:29:41.539Z,10.76
2023-04-10T11:30:43.153Z,10.74
2023-04-10T11:31:54.931Z,10.70
2023-04-10T11:32:57.595Z,10.74
2023-04-10T11:34:01.674Z,10.78
2023-04-10T11:35:05.114Z,10.76
2023-04-10T11:36:07.370Z,10.80
2023-04-10T11:37:08.891Z,10.78
2023-04-10T11:38:12.436Z,10.79
2023-04-10T11:39:15.659Z,10.83
2023-04-10T11:40:17.292Z,10.88
2023-04-10T11:41:18.847Z,10.90
2023-04-10T11:42:20.746Z,10.93
2023-04-10T11:43:22.414Z,10.92
2023-04-10T11:44:34.326Z,10.96
2023-04-10T11:45:35.981Z,10.94
2023-04-10T11:46:39.397Z,10.91
2023-04-10T11:47:41.029Z,10.89
2023-04-10T11:48:42.722Z,10.87
2023-04-10T11:49:53.684Z,10.90
2023-04-10T11:50:55.389Z,10.89
2023-04-10T11:51:56.959Z,10.93
2023-04-10T11:52:58.579Z,10.97
2023-04-10T11:54:20.382Z,10.93
2023-04-10T11:55:39.378Z,10.90
2023-04-10T11:56:43.767Z,10.86
2023-04-10T11:57:45.892Z,10.86
2023-04-10T11:58:50.979Z,10.85
2023-04-10T11:59:52.548Z,10.82
2023-04-10T12:00:58.393Z,10.78
2023-04-10T12:02:10.282Z,10.76
2023-04-10T12:03:12.102Z,10.74
2023-04-10T12:04:18.292Z,10.73
2023-04-10T12:05:20.132Z,10.76
2023-04-10T12:06:22.217Z,10.76
2023-04-10T12:07:24.452Z,10.78
2023-04-10T12:08:33.524Z,10.81
2023-04-10T12:09:35.257Z,10.67
2023-04-10T12:10:47.109Z,10.68
2023-04-10T12:11:56.588Z,10.71
2023-04-10T12:12:58.163Z,10.70
2023-04-10T12:13:59.824Z,10.74
2023-04-10T12:15:01.485Z,10.76
2023-04-10T12:16:10.423Z,10.74
2023-04-10T12:17:12.575Z,10.70
2023-04-10T12:18:14.177Z,10.69
2023-04-10T12:19:16.501Z,10.66
2023-04-10T12:20:18.168Z,10.68
2023-04-10T12:21:20.092Z,10.71
2023-04-10T12:22:21.813Z,10.75
2023-04-10T12:23:24.341Z,10.74
2023-04-10T12:24:46.350Z,10.78
2023-04-10T12:25:47.874Z,10.78
2023-04-10T12:26:49.552Z,10.78
2023-04-10T12:27:51.129Z,10.80
2023-04-10T12:28:55.034Z,10.85
2023-04-10T12:29:58.468Z,10.86
2023-04-10T12:31:00.186Z,10.85
2023-04-10T12:32:10.407Z,10.82
2023-04-10T12:33:12.015Z,10.87
2023-04-10T12:34:18.616Z,10.89
2023-04-10T12:35:20.303Z,10.91
2023-04-10T12:36:23.052Z,10.93
2023-04-10T12:37:25.786Z,10.90
2023-04-10T12:38:36.627Z,10.90
2023-04-10T12:39:38.223Z,10.92
2023-04-10T12:40:58.171Z,10.95
2023-04-10T12:42:12.770Z,10.88
2023-04-10T12:43:50.178Z,10.87
2023-04-10T12:44:56.249Z,10.90
2023-04-10T12:45:58.029Z,10.94
2023-04-10T12:47:00.661Z,11.00
2023-04-10T12:48:02.457Z,11.03
2023-04-10T12:49:20.028Z,11.08
2023-04-10T12:50:21.617Z,11.11
2023-04-10T12:52:01.988Z,11.10
2023-04-10T12:53:06.789Z,11.09
2023-04-10T12:54:08.359Z,11.08
2023-04-10T12:55:13.937Z,11.09
2023-04-10T12:56:15.457Z,11.09
2023-04-10T12:57:26.950Z,11.10
2023-04-10T12:58:29.318Z,11.13
2023-04-10T12:59:31.101Z,11.10
2023-04-10T13:00:32.615Z,11.05
2023-04-10T13:01:34.275Z,11.07
2023-04-10T13:02:37.075Z,11.02
2023-04-10T13:03:39.000Z,11.03
2023-04-10T13:04:40.861Z,11.00
2023-04-10T13:05:42.673Z,10.98
2023-04-10T13:06:45.820Z,11.02
2023-04-10T13:07:47.387Z,11.00
2023-04-10T13:08:48.908Z,11.02
2023-04-10T13:09:50.470Z,11.02
2023-04-10T13:10:52.022Z,11.05
2023-04-10T13:11:53.551Z,11.05
2023-04-10T13:12:55.620Z,11.07
2023-04-10T13:13:57.144Z,11.09
2023-04-10T13:14:58.699Z,11.14
2023-04-10T13:16:00.380Z,11.22
2023-04-10T13:17:02.386Z,11.20
2023-04-10T13:18:05.847Z,11.26
2023-04-10T13:19:07.701Z,11.30
2023-04-10T13:20:10.283Z,11.36
2023-04-10T13:21:11.817Z,11.45
2023-04-10T13:22:13.385Z,11.56
2023-04-10T13:23:14.912Z,11.66
2023-04-10T13:24:16.862Z,11.71
2023-04-10T13:25:18.565Z,11.71
2023-04-10T13:26:20.102Z,11.76
2023-04-10T13:27:21.679Z,11.80
2023-04-10T13:28:23.193Z,11.84
2023-04-10T13:29:25.177Z,11.91
2023-04-10T13:30:27.959Z,11.99
2023-04-10T13:31:29.516Z,12.05
2023-04-10T13:32:31.126Z,12.07
2023-04-10T13:33:32.892Z,12.12
2023-04-10T13:34:35.320Z,12.13
2023-04-10T13:35:36.957Z,12.16
2023-04-10T13:36:38.728Z,12.19
2023-04-10T13:37:40.358Z,12.20
2023-04-10T13:38:42.382Z,12.23
2023-04-10T13:39:44.189Z,12.23
2023-04-10T13:40:45.711Z,12.25
2023-04-10T13:41:47.214Z,12.31
2023-04-10T13:42:48.830Z,12.28
2023-04-10T13:43:50.355Z,12.32
2023-04-10T13:44:51.915Z,12.40
2023-04-10T13:45:53.451Z,12.45
2023-04-10T13:46:55.061Z,12.29
2023-04-10T13:47:56.749Z,12.29
2023-04-10T13:48:58.738Z,12.42
2023-04-10T13:50:00.520Z,12.51
2023-04-10T13:51:02.036Z,12.53
2023-04-10T13:52:03.553Z,12.57
2023-04-10T13:53:05.088Z,12.60
2023-04-10T13:54:06.583Z,12.65
2023-04-10T13:55:08.646Z,12.70
2023-04-10T13:56:10.193Z,12.63
2023-04-10T13:57:11.891Z,12.52
2023-04-10T13:58:13.434Z,12.43
2023-04-10T13:59:14.972Z,12.44
2023-04-10T14:00:17.314Z,12.42
2023-04-10T14:01:18.865Z,12.41
2023-04-10T14:02:20.602Z,12.47
2023-04-10T14:03:22.340Z,12.48
2023-04-10T14:04:23.942Z,12.42
2023-04-10T14:05:25.554Z,12.40
2023-04-10T14:06:27.130Z,12.35
2023-04-10T14:07:28.726Z,12.36
2023-04-10T14:08:30.293Z,12.40
2023-04-10T14:09:31.830Z,12.48
2023-04-10T14:10:33.352Z,12.50
2023-04-10T14:11:34.913Z,12.43
2023-04-10T14:12:37.765Z,12.44
2023-04-10T14:13:39.609Z,12.39
2023-04-10T14:14:41.138Z,12.43
2023-04-10T14:15:42.809Z,12.53
2023-04-10T14:16:44.345Z,12.59
2023-04-10T14:17:45.979Z,12.54
2023-04-10T14:18:47.505Z,12.47
2023-04-10T14:19:49.036Z,12.42
2023-04-10T14:20:50.580Z,12.40
2023-04-10T14:21:52.148Z,12.37
2023-04-10T14:22:53.722Z,12.37
2023-04-10T14:23:55.235Z,12.39
2023-04-10T14:25:09.200Z,12.33
2023-04-10T14:26:13.714Z,12.30
2023-04-10T14:27:15.264Z,12.32
2023-04-10T14:28:16.924Z,12.32
2023-04-10T14:29:22.611Z,12.32
2023-04-10T14:30:27.058Z,12.25
2023-04-10T14:31:29.652Z,12.20